CheckWX is a tool to help pilots better visualize weather data.  It is not intended as a substitute for an official pre-flight weather briefing.

12:22:48 UTC

KMAI METAR
Marianna Municipal Airport
Marianna, Florida, USA
Current

30 mins ago

KMAI 251153Z AUTO 15003KT M1/4SM FG VV002 12/12 A3011 RMK AO2 SLP193 T01220122 10128 20111 53004
Observed
Mar-25 @ 11:53 UTC
Wind
  • 150° at 3 KTS
Visibility
1/4 SM
Flight Rules
LIFR
Conditions
Fog
Cloud Levels
  • Vertical visibility at 200' AGL
Temperature
12°C / 54°F
Dewpoint
12°C / 54°F
Humidity
100%
Altimeter
30.11" Hg
Pressure
1019.3 hPa
Previous

1 hour ago

KMAI 251053Z AUTO 00000KT 1/4SM FG VV002 12/12 A3009 RMK AO2 SLP186 T01220122
Observed
Mar-25 @ 10:53 UTC
Visibility
1/4 SM
Flight Rules
LIFR
Conditions
Fog
Cloud Levels
  • Vertical visibility at 200' AGL
Temperature
12°C / 54°F
Dewpoint
12°C / 54°F
Humidity
100%
Altimeter
30.09" Hg
Pressure
1018.6 hPa
Previous

2 hours ago

KMAI 250953Z AUTO 17004KT 1/2SM FG VV002 13/13 A3009 RMK AO2 SLP187 T01280128
Observed
Mar-25 @ 09:53 UTC
Wind
  • 170° at 4 KTS
Visibility
1/2 SM
Flight Rules
LIFR
Conditions
Fog
Cloud Levels
  • Vertical visibility at 200' AGL
Temperature
13°C / 55°F
Dewpoint
13°C / 55°F
Humidity
100%
Altimeter
30.09" Hg
Pressure
1018.7 hPa